sensor_id;sensor_type;location;lat;lon;timestamp;P1;durP1;ratioP1;P2;durP2;ratioP2
40781;SDS011;26493;51.938;7.626;2022-07-04T00:00:17;17.70;;;9.55;;
40781;SDS011;26493;51.938;7.626;2022-07-04T00:02:44;17.33;;;10.27;;
40781;SDS011;26493;51.938;7.626;2022-07-04T00:05:11;17.35;;;10.10;;
40781;SDS011;26493;51.938;7.626;2022-07-04T00:07:38;18.83;;;9.52;;
40781;SDS011;26493;51.938;7.626;2022-07-04T00:10:04;16.92;;;9.50;;
40781;SDS011;26493;51.938;7.626;2022-07-04T00:12:30;17.02;;;10.32;;
40781;SDS011;26493;51.938;7.626;2022-07-04T00:14:56;20.65;;;9.88;;
40781;SDS011;26493;51.938;7.626;2022-07-04T00:17:22;17.35;;;9.88;;
40781;SDS011;26493;51.938;7.626;2022-07-04T00:19:48;16.95;;;10.02;;
40781;SDS011;26493;51.938;7.626;2022-07-04T00:22:14;16.30;;;9.57;;
40781;SDS011;26493;51.938;7.626;2022-07-04T00:24:40;16.35;;;9.90;;
40781;SDS011;26493;51.938;7.626;2022-07-04T00:27:06;16.17;;;9.38;;
40781;SDS011;26493;51.938;7.626;2022-07-04T00:29:32;16.80;;;9.48;;
40781;SDS011;26493;51.938;7.626;2022-07-04T00:31:58;16.40;;;8.98;;
40781;SDS011;26493;51.938;7.626;2022-07-04T00:34:25;18.40;;;9.95;;
40781;SDS011;26493;51.938;7.626;2022-07-04T00:36:51;16.30;;;9.73;;
40781;SDS011;26493;51.938;7.626;2022-07-04T00:39:17;17.02;;;9.77;;
40781;SDS011;26493;51.938;7.626;2022-07-04T00:41:43;15.60;;;9.10;;
40781;SDS011;26493;51.938;7.626;2022-07-04T00:44:10;16.08;;;9.27;;
40781;SDS011;26493;51.938;7.626;2022-07-04T00:46:36;17.00;;;9.82;;
40781;SDS011;26493;51.938;7.626;2022-07-04T00:49:06;16.63;;;9.27;;
40781;SDS011;26493;51.938;7.626;2022-07-04T00:51:32;17.67;;;9.60;;
40781;SDS011;26493;51.938;7.626;2022-07-04T00:53:58;22.63;;;9.88;;
40781;SDS011;26493;51.938;7.626;2022-07-04T00:56:25;16.75;;;10.00;;
40781;SDS011;26493;51.938;7.626;2022-07-04T00:58:52;17.42;;;10.23;;
40781;SDS011;26493;51.938;7.626;2022-07-04T01:01:18;18.48;;;10.20;;
40781;SDS011;26493;51.938;7.626;2022-07-04T01:03:44;18.50;;;9.60;;
40781;SDS011;26493;51.938;7.626;2022-07-04T01:06:11;17.05;;;9.60;;
40781;SDS011;26493;51.938;7.626;2022-07-04T01:08:37;20.30;;;10.00;;
40781;SDS011;26493;51.938;7.626;2022-07-04T01:11:03;17.25;;;10.30;;
40781;SDS011;26493;51.938;7.626;2022-07-04T01:13:29;17.58;;;10.18;;
40781;SDS011;26493;51.938;7.626;2022-07-04T01:15:55;20.52;;;10.00;;
40781;SDS011;26493;51.938;7.626;2022-07-04T01:18:21;16.25;;;9.73;;
40781;SDS011;26493;51.938;7.626;2022-07-04T01:20:47;18.52;;;9.90;;
40781;SDS011;26493;51.938;7.626;2022-07-04T01:23:13;18.00;;;10.50;;
40781;SDS011;26493;51.938;7.626;2022-07-04T01:25:41;17.02;;;10.00;;
40781;SDS011;26493;51.938;7.626;2022-07-04T01:28:07;18.75;;;9.85;;
40781;SDS011;26493;51.938;7.626;2022-07-04T01:30:33;17.00;;;9.95;;
40781;SDS011;26493;51.938;7.626;2022-07-04T01:32:59;18.10;;;9.43;;
40781;SDS011;26493;51.938;7.626;2022-07-04T01:35:25;17.80;;;10.10;;
40781;SDS011;26493;51.938;7.626;2022-07-04T01:37:51;20.30;;;11.07;;
40781;SDS011;26493;51.938;7.626;2022-07-04T01:40:17;18.05;;;10.43;;
40781;SDS011;26493;51.938;7.626;2022-07-04T01:42:43;17.67;;;9.30;;
40781;SDS011;26493;51.938;7.626;2022-07-04T01:45:09;16.70;;;10.45;;
40781;SDS011;26493;51.938;7.626;2022-07-04T01:47:36;17.25;;;10.52;;
40781;SDS011;26493;51.938;7.626;2022-07-04T01:50:02;17.77;;;10.60;;
40781;SDS011;26493;51.938;7.626;2022-07-04T01:52:28;19.45;;;10.63;;
40781;SDS011;26493;51.938;7.626;2022-07-04T01:54:55;16.63;;;10.57;;
40781;SDS011;26493;51.938;7.626;2022-07-04T01:57:21;21.80;;;11.13;;
40781;SDS011;26493;51.938;7.626;2022-07-04T01:59:46;18.10;;;10.50;;
40781;SDS011;26493;51.938;7.626;2022-07-04T02:02:31;17.75;;;9.73;;
40781;SDS011;26493;51.938;7.626;2022-07-04T02:04:57;17.85;;;11.02;;
40781;SDS011;26493;51.938;7.626;2022-07-04T02:07:23;17.23;;;10.95;;
40781;SDS011;26493;51.938;7.626;2022-07-04T02:09:49;19.80;;;10.43;;
40781;SDS011;26493;51.938;7.626;2022-07-04T02:12:15;17.38;;;10.40;;
40781;SDS011;26493;51.938;7.626;2022-07-04T02:15:00;20.92;;;11.18;;
40781;SDS011;26493;51.938;7.626;2022-07-04T02:17:26;21.30;;;11.93;;
40781;SDS011;26493;51.938;7.626;2022-07-04T02:19:52;18.48;;;11.95;;
40781;SDS011;26493;51.938;7.626;2022-07-04T02:22:18;20.13;;;12.68;;
40781;SDS011;26493;51.938;7.626;2022-07-04T02:24:44;20.50;;;11.93;;
40781;SDS011;26493;51.938;7.626;2022-07-04T02:27:10;20.20;;;11.45;;
40781;SDS011;26493;51.938;7.626;2022-07-04T02:29:36;18.75;;;11.63;;
40781;SDS011;26493;51.938;7.626;2022-07-04T02:32:03;19.10;;;11.77;;
40781;SDS011;26493;51.938;7.626;2022-07-04T02:34:29;18.25;;;11.38;;
40781;SDS011;26493;51.938;7.626;2022-07-04T02:36:55;18.02;;;11.80;;
40781;SDS011;26493;51.938;7.626;2022-07-04T02:39:21;21.05;;;11.73;;
40781;SDS011;26493;51.938;7.626;2022-07-04T02:41:47;19.60;;;12.10;;
40781;SDS011;26493;51.938;7.626;2022-07-04T02:44:13;18.13;;;11.70;;
40781;SDS011;26493;51.938;7.626;2022-07-04T02:46:39;18.83;;;11.85;;
40781;SDS011;26493;51.938;7.626;2022-07-04T02:49:05;19.52;;;12.10;;
40781;SDS011;26493;51.938;7.626;2022-07-04T02:51:31;18.70;;;12.55;;
40781;SDS011;26493;51.938;7.626;2022-07-04T02:53:57;22.48;;;11.90;;
40781;SDS011;26493;51.938;7.626;2022-07-04T02:56:23;18.15;;;11.32;;
40781;SDS011;26493;51.938;7.626;2022-07-04T02:58:49;20.08;;;12.13;;
40781;SDS011;26493;51.938;7.626;2022-07-04T03:01:15;18.88;;;12.30;;
40781;SDS011;26493;51.938;7.626;2022-07-04T03:03:43;21.80;;;14.02;;
40781;SDS011;26493;51.938;7.626;2022-07-04T03:06:09;19.40;;;12.45;;
40781;SDS011;26493;51.938;7.626;2022-07-04T03:08:35;19.55;;;12.55;;
40781;SDS011;26493;51.938;7.626;2022-07-04T03:11:02;19.55;;;12.32;;
40781;SDS011;26493;51.938;7.626;2022-07-04T03:13:28;18.10;;;12.23;;
40781;SDS011;26493;51.938;7.626;2022-07-04T03:15:54;18.00;;;11.48;;
40781;SDS011;26493;51.938;7.626;2022-07-04T03:18:20;18.48;;;12.27;;
40781;SDS011;26493;51.938;7.626;2022-07-04T03:20:46;19.10;;;12.25;;
40781;SDS011;26493;51.938;7.626;2022-07-04T03:23:12;20.65;;;12.25;;
40781;SDS011;26493;51.938;7.626;2022-07-04T03:25:39;18.50;;;12.30;;
40781;SDS011;26493;51.938;7.626;2022-07-04T03:28:05;19.48;;;12.75;;
40781;SDS011;26493;51.938;7.626;2022-07-04T03:30:31;21.60;;;12.15;;
40781;SDS011;26493;51.938;7.626;2022-07-04T03:32:57;20.45;;;12.43;;
40781;SDS011;26493;51.938;7.626;2022-07-04T03:35:23;19.77;;;12.50;;
40781;SDS011;26493;51.938;7.626;2022-07-04T03:37:49;20.75;;;13.60;;
40781;SDS011;26493;51.938;7.626;2022-07-04T03:40:16;23.40;;;14.13;;
40781;SDS011;26493;51.938;7.626;2022-07-04T03:42:42;22.77;;;14.05;;
40781;SDS011;26493;51.938;7.626;2022-07-04T03:45:08;24.20;;;13.60;;
40781;SDS011;26493;51.938;7.626;2022-07-04T03:47:34;25.65;;;12.65;;
40781;SDS011;26493;51.938;7.626;2022-07-04T03:50:00;20.88;;;13.18;;
40781;SDS011;26493;51.938;7.626;2022-07-04T03:52:26;21.08;;;14.10;;
40781;SDS011;26493;51.938;7.626;2022-07-04T03:54:52;22.98;;;13.38;;
40781;SDS011;26493;51.938;7.626;2022-07-04T03:57:18;20.33;;;12.57;;
40781;SDS011;26493;51.938;7.626;2022-07-04T03:59:44;21.85;;;13.50;;
40781;SDS011;26493;51.938;7.626;2022-07-04T04:02:10;21.17;;;13.23;;
40781;SDS011;26493;51.938;7.626;2022-07-04T04:04:36;19.98;;;13.65;;
40781;SDS011;26493;51.938;7.626;2022-07-04T04:07:21;20.05;;;13.05;;
40781;SDS011;26493;51.938;7.626;2022-07-04T04:09:47;24.58;;;13.85;;
40781;SDS011;26493;51.938;7.626;2022-07-04T04:12:14;20.90;;;14.27;;
40781;SDS011;26493;51.938;7.626;2022-07-04T04:14:40;21.48;;;13.77;;
40781;SDS011;26493;51.938;7.626;2022-07-04T04:17:06;20.48;;;14.32;;
40781;SDS011;26493;51.938;7.626;2022-07-04T04:19:32;19.83;;;13.77;;
40781;SDS011;26493;51.938;7.626;2022-07-04T04:21:59;21.40;;;14.27;;
40781;SDS011;26493;51.938;7.626;2022-07-04T04:24:24;21.20;;;14.20;;
40781;SDS011;26493;51.938;7.626;2022-07-04T04:26:50;22.65;;;13.93;;
40781;SDS011;26493;51.938;7.626;2022-07-04T04:29:16;22.10;;;13.75;;
40781;SDS011;26493;51.938;7.626;2022-07-04T04:31:42;23.48;;;13.95;;
40781;SDS011;26493;51.938;7.626;2022-07-04T04:34:08;20.67;;;13.55;;
40781;SDS011;26493;51.938;7.626;2022-07-04T04:36:34;19.88;;;13.18;;
40781;SDS011;26493;51.938;7.626;2022-07-04T04:39:00;22.17;;;13.98;;
40781;SDS011;26493;51.938;7.626;2022-07-04T04:41:26;20.70;;;13.38;;
40781;SDS011;26493;51.938;7.626;2022-07-04T04:43:52;24.27;;;14.55;;
40781;SDS011;26493;51.938;7.626;2022-07-04T04:46:18;21.48;;;14.10;;
40781;SDS011;26493;51.938;7.626;2022-07-04T04:48:44;19.80;;;13.65;;
40781;SDS011;26493;51.938;7.626;2022-07-04T04:51:10;20.45;;;13.77;;
40781;SDS011;26493;51.938;7.626;2022-07-04T04:53:36;20.55;;;13.20;;
40781;SDS011;26493;51.938;7.626;2022-07-04T04:56:02;19.13;;;13.20;;
40781;SDS011;26493;51.938;7.626;2022-07-04T04:58:28;21.35;;;13.68;;
40781;SDS011;26493;51.938;7.626;2022-07-04T05:00:54;21.90;;;13.15;;
40781;SDS011;26493;51.938;7.626;2022-07-04T05:03:20;18.77;;;12.93;;
40781;SDS011;26493;51.938;7.626;2022-07-04T05:05:46;21.88;;;12.43;;
40781;SDS011;26493;51.938;7.626;2022-07-04T05:08:12;21.00;;;12.77;;
40781;SDS011;26493;51.938;7.626;2022-07-04T05:10:39;18.42;;;12.63;;
40781;SDS011;26493;51.938;7.626;2022-07-04T05:13:05;19.20;;;12.77;;
40781;SDS011;26493;51.938;7.626;2022-07-04T05:15:31;18.83;;;13.02;;
40781;SDS011;26493;51.938;7.626;2022-07-04T05:17:58;21.00;;;13.00;;
40781;SDS011;26493;51.938;7.626;2022-07-04T05:20:24;19.95;;;13.23;;
40781;SDS011;26493;51.938;7.626;2022-07-04T05:22:50;22.02;;;13.10;;
40781;SDS011;26493;51.938;7.626;2022-07-04T05:25:16;20.48;;;12.77;;
40781;SDS011;26493;51.938;7.626;2022-07-04T05:27:42;24.05;;;13.27;;
40781;SDS011;26493;51.938;7.626;2022-07-04T05:30:08;19.55;;;12.55;;
40781;SDS011;26493;51.938;7.626;2022-07-04T05:32:35;22.40;;;12.48;;
40781;SDS011;26493;51.938;7.626;2022-07-04T05:35:03;21.52;;;12.75;;
40781;SDS011;26493;51.938;7.626;2022-07-04T05:37:29;18.48;;;11.88;;
40781;SDS011;26493;51.938;7.626;2022-07-04T05:39:55;21.90;;;12.30;;
40781;SDS011;26493;51.938;7.626;2022-07-04T05:42:21;20.75;;;12.85;;
40781;SDS011;26493;51.938;7.626;2022-07-04T05:44:48;17.60;;;11.60;;
40781;SDS011;26493;51.938;7.626;2022-07-04T05:47:14;18.50;;;12.32;;
40781;SDS011;26493;51.938;7.626;2022-07-04T05:49:40;24.73;;;14.20;;
40781;SDS011;26493;51.938;7.626;2022-07-04T05:52:06;20.88;;;12.30;;
40781;SDS011;26493;51.938;7.626;2022-07-04T05:54:32;19.30;;;12.60;;
40781;SDS011;26493;51.938;7.626;2022-07-04T05:56:58;21.67;;;12.48;;
40781;SDS011;26493;51.938;7.626;2022-07-04T05:59:25;24.25;;;12.80;;
40781;SDS011;26493;51.938;7.626;2022-07-04T06:01:51;18.65;;;11.63;;
40781;SDS011;26493;51.938;7.626;2022-07-04T06:04:17;20.05;;;12.07;;
40781;SDS011;26493;51.938;7.626;2022-07-04T06:06:43;21.35;;;12.45;;
40781;SDS011;26493;51.938;7.626;2022-07-04T06:09:09;19.10;;;11.57;;
40781;SDS011;26493;51.938;7.626;2022-07-04T06:11:35;19.02;;;12.15;;
40781;SDS011;26493;51.938;7.626;2022-07-04T06:14:01;18.50;;;12.05;;
40781;SDS011;26493;51.938;7.626;2022-07-04T06:16:27;21.25;;;11.88;;
40781;SDS011;26493;51.938;7.626;2022-07-04T06:18:53;22.02;;;13.55;;
40781;SDS011;26493;51.938;7.626;2022-07-04T06:21:19;20.58;;;12.02;;
40781;SDS011;26493;51.938;7.626;2022-07-04T06:23:45;18.75;;;11.77;;
40781;SDS011;26493;51.938;7.626;2022-07-04T06:26:11;20.90;;;11.75;;
40781;SDS011;26493;51.938;7.626;2022-07-04T06:28:37;18.23;;;10.77;;
40781;SDS011;26493;51.938;7.626;2022-07-04T06:31:03;18.80;;;10.95;;
40781;SDS011;26493;51.938;7.626;2022-07-04T06:33:29;21.85;;;11.65;;
40781;SDS011;26493;51.938;7.626;2022-07-04T06:35:55;20.23;;;11.75;;
40781;SDS011;26493;51.938;7.626;2022-07-04T06:38:25;18.75;;;11.55;;
40781;SDS011;26493;51.938;7.626;2022-07-04T06:40:56;18.15;;;11.35;;
40781;SDS011;26493;51.938;7.626;2022-07-04T06:43:22;18.13;;;11.10;;
40781;SDS011;26493;51.938;7.626;2022-07-04T06:45:48;16.73;;;10.80;;
40781;SDS011;26493;51.938;7.626;2022-07-04T06:48:14;19.77;;;10.60;;
40781;SDS011;26493;51.938;7.626;2022-07-04T06:50:40;19.13;;;10.77;;
40781;SDS011;26493;51.938;7.626;2022-07-04T06:53:07;19.05;;;11.32;;
40781;SDS011;26493;51.938;7.626;2022-07-04T06:55:33;17.50;;;10.23;;
40781;SDS011;26493;51.938;7.626;2022-07-04T06:57:59;16.88;;;10.27;;
40781;SDS011;26493;51.938;7.626;2022-07-04T07:00:26;17.88;;;9.93;;
40781;SDS011;26493;51.938;7.626;2022-07-04T07:02:52;20.23;;;10.32;;
40781;SDS011;26493;51.938;7.626;2022-07-04T07:05:18;18.50;;;10.48;;
40781;SDS011;26493;51.938;7.626;2022-07-04T07:07:44;17.92;;;10.57;;
40781;SDS011;26493;51.938;7.626;2022-07-04T07:10:10;16.15;;;10.20;;
40781;SDS011;26493;51.938;7.626;2022-07-04T07:12:36;18.67;;;10.15;;
40781;SDS011;26493;51.938;7.626;2022-07-04T07:15:02;30.00;;;11.73;;
40781;SDS011;26493;51.938;7.626;2022-07-04T07:17:28;17.17;;;9.77;;
40781;SDS011;26493;51.938;7.626;2022-07-04T07:19:54;16.33;;;10.32;;
40781;SDS011;26493;51.938;7.626;2022-07-04T07:22:20;16.25;;;9.55;;
40781;SDS011;26493;51.938;7.626;2022-07-04T07:24:46;23.67;;;12.40;;
40781;SDS011;26493;51.938;7.626;2022-07-04T07:27:12;23.00;;;12.70;;
40781;SDS011;26493;51.938;7.626;2022-07-04T07:29:38;17.02;;;10.38;;
40781;SDS011;26493;51.938;7.626;2022-07-04T07:32:05;19.05;;;11.30;;
40781;SDS011;26493;51.938;7.626;2022-07-04T07:34:31;21.80;;;10.27;;
40781;SDS011;26493;51.938;7.626;2022-07-04T07:36:57;17.67;;;10.20;;
40781;SDS011;26493;51.938;7.626;2022-07-04T07:39:23;16.52;;;9.80;;
40781;SDS011;26493;51.938;7.626;2022-07-04T07:41:49;16.45;;;10.18;;
40781;SDS011;26493;51.938;7.626;2022-07-04T07:44:15;17.17;;;9.63;;
40781;SDS011;26493;51.938;7.626;2022-07-04T07:46:41;18.20;;;9.93;;
40781;SDS011;26493;51.938;7.626;2022-07-04T07:49:07;16.60;;;9.52;;
40781;SDS011;26493;51.938;7.626;2022-07-04T07:51:33;17.40;;;9.85;;
40781;SDS011;26493;51.938;7.626;2022-07-04T07:53:59;16.50;;;8.80;;
40781;SDS011;26493;51.938;7.626;2022-07-04T07:56:25;16.40;;;8.90;;
40781;SDS011;26493;51.938;7.626;2022-07-04T07:58:51;15.80;;;9.70;;
40781;SDS011;26493;51.938;7.626;2022-07-04T08:01:18;15.27;;;9.48;;
40781;SDS011;26493;51.938;7.626;2022-07-04T08:03:45;17.90;;;9.60;;
40781;SDS011;26493;51.938;7.626;2022-07-04T08:06:30;17.95;;;9.30;;
40781;SDS011;26493;51.938;7.626;2022-07-04T08:08:56;19.80;;;9.20;;
40781;SDS011;26493;51.938;7.626;2022-07-04T08:11:22;15.05;;;9.20;;
40781;SDS011;26493;51.938;7.626;2022-07-04T08:13:48;16.30;;;8.98;;
40781;SDS011;26493;51.938;7.626;2022-07-04T08:16:14;16.15;;;9.50;;
40781;SDS011;26493;51.938;7.626;2022-07-04T08:18:40;17.15;;;9.35;;
40781;SDS011;26493;51.938;7.626;2022-07-04T08:21:06;17.40;;;10.30;;
40781;SDS011;26493;51.938;7.626;2022-07-04T08:23:32;15.95;;;10.30;;
40781;SDS011;26493;51.938;7.626;2022-07-04T08:25:58;15.65;;;9.50;;
40781;SDS011;26493;51.938;7.626;2022-07-04T08:28:25;16.63;;;9.55;;
40781;SDS011;26493;51.938;7.626;2022-07-04T08:30:52;18.05;;;9.60;;
40781;SDS011;26493;51.938;7.626;2022-07-04T08:33:18;14.90;;;9.20;;
40781;SDS011;26493;51.938;7.626;2022-07-04T08:35:44;17.30;;;9.85;;
40781;SDS011;26493;51.938;7.626;2022-07-04T08:38:10;14.55;;;9.13;;
40781;SDS011;26493;51.938;7.626;2022-07-04T08:40:36;18.77;;;9.70;;
40781;SDS011;26493;51.938;7.626;2022-07-04T08:43:02;15.40;;;9.60;;
40781;SDS011;26493;51.938;7.626;2022-07-04T08:45:30;16.90;;;10.55;;
40781;SDS011;26493;51.938;7.626;2022-07-04T08:50:29;17.98;;;10.57;;
40781;SDS011;26493;51.938;7.626;2022-07-04T08:53:00;15.60;;;10.15;;
40781;SDS011;26493;51.938;7.626;2022-07-04T08:55:28;16.20;;;9.70;;
40781;SDS011;26493;51.938;7.626;2022-07-04T08:58:13;15.95;;;10.25;;
40781;SDS011;26493;51.938;7.626;2022-07-04T09:00:56;15.10;;;9.65;;
40781;SDS011;26493;51.938;7.626;2022-07-04T09:03:22;15.90;;;9.45;;
40781;SDS011;26493;51.938;7.626;2022-07-04T09:05:48;15.70;;;9.95;;
40781;SDS011;26493;51.938;7.626;2022-07-04T09:08:15;14.63;;;9.45;;
40781;SDS011;26493;51.938;7.626;2022-07-04T09:10:41;16.15;;;10.30;;
40781;SDS011;26493;51.938;7.626;2022-07-04T09:13:07;18.02;;;10.55;;
40781;SDS011;26493;51.938;7.626;2022-07-04T09:15:34;17.17;;;9.80;;
40781;SDS011;26493;51.938;7.626;2022-07-04T09:18:00;14.85;;;9.93;;
40781;SDS011;26493;51.938;7.626;2022-07-04T09:20:27;16.73;;;9.93;;
40781;SDS011;26493;51.938;7.626;2022-07-04T09:22:54;14.98;;;9.60;;
40781;SDS011;26493;51.938;7.626;2022-07-04T09:25:21;15.15;;;9.38;;
40781;SDS011;26493;51.938;7.626;2022-07-04T09:27:51;16.13;;;9.65;;
40781;SDS011;26493;51.938;7.626;2022-07-04T09:30:19;14.60;;;9.10;;
40781;SDS011;26493;51.938;7.626;2022-07-04T09:32:54;17.02;;;9.68;;
40781;SDS011;26493;51.938;7.626;2022-07-04T09:35:30;16.63;;;9.38;;
40781;SDS011;26493;51.938;7.626;2022-07-04T09:37:57;15.43;;;9.50;;
40781;SDS011;26493;51.938;7.626;2022-07-04T09:42:53;16.73;;;9.80;;
40781;SDS011;26493;51.938;7.626;2022-07-04T09:45:19;15.57;;;8.85;;
40781;SDS011;26493;51.938;7.626;2022-07-04T09:47:49;15.48;;;9.52;;
40781;SDS011;26493;51.938;7.626;2022-07-04T09:50:18;15.35;;;9.13;;
40781;SDS011;26493;51.938;7.626;2022-07-04T09:55:10;16.17;;;9.23;;
40781;SDS011;26493;51.938;7.626;2022-07-04T09:57:36;14.85;;;8.70;;
40781;SDS011;26493;51.938;7.626;2022-07-04T10:02:47;15.07;;;9.07;;
40781;SDS011;26493;51.938;7.626;2022-07-04T10:05:18;14.40;;;9.10;;
40781;SDS011;26493;51.938;7.626;2022-07-04T10:07:44;16.92;;;9.20;;
40781;SDS011;26493;51.938;7.626;2022-07-04T10:12:51;14.82;;;8.65;;
40781;SDS011;26493;51.938;7.626;2022-07-04T10:15:18;15.88;;;8.73;;
40781;SDS011;26493;51.938;7.626;2022-07-04T10:17:47;16.98;;;8.68;;
40781;SDS011;26493;51.938;7.626;2022-07-04T10:20:13;14.98;;;8.88;;
40781;SDS011;26493;51.938;7.626;2022-07-04T10:22:42;19.88;;;9.18;;
40781;SDS011;26493;51.938;7.626;2022-07-04T10:25:09;14.43;;;8.80;;
40781;SDS011;26493;51.938;7.626;2022-07-04T10:27:35;21.48;;;9.45;;
40781;SDS011;26493;51.938;7.626;2022-07-04T10:30:05;17.38;;;9.93;;
40781;SDS011;26493;51.938;7.626;2022-07-04T10:32:35;16.88;;;9.55;;
40781;SDS011;26493;51.938;7.626;2022-07-04T10:35:02;14.77;;;9.00;;
40781;SDS011;26493;51.938;7.626;2022-07-04T10:40:30;17.17;;;9.48;;
40781;SDS011;26493;51.938;7.626;2022-07-04T10:43:01;23.70;;;10.25;;
40781;SDS011;26493;51.938;7.626;2022-07-04T10:45:32;15.05;;;9.70;;
40781;SDS011;26493;51.938;7.626;2022-07-04T10:47:59;15.07;;;9.60;;
40781;SDS011;26493;51.938;7.626;2022-07-04T10:50:28;14.38;;;9.48;;
40781;SDS011;26493;51.938;7.626;2022-07-04T10:53:08;15.00;;;9.93;;
40781;SDS011;26493;51.938;7.626;2022-07-04T10:55:34;15.88;;;10.07;;
40781;SDS011;26493;51.938;7.626;2022-07-04T10:58:00;15.57;;;10.10;;
40781;SDS011;26493;51.938;7.626;2022-07-04T11:00:26;15.82;;;10.60;;
40781;SDS011;26493;51.938;7.626;2022-07-04T11:02:53;16.30;;;10.32;;
40781;SDS011;26493;51.938;7.626;2022-07-04T11:05:38;15.68;;;10.50;;
40781;SDS011;26493;51.938;7.626;2022-07-04T11:08:04;14.82;;;10.60;;
40781;SDS011;26493;51.938;7.626;2022-07-04T11:10:31;14.80;;;10.40;;
40781;SDS011;26493;51.938;7.626;2022-07-04T11:13:06;14.75;;;10.35;;
40781;SDS011;26493;51.938;7.626;2022-07-04T11:18:00;15.13;;;10.50;;
40781;SDS011;26493;51.938;7.626;2022-07-04T11:20:27;15.75;;;11.25;;
40781;SDS011;26493;51.938;7.626;2022-07-04T11:23:02;17.90;;;11.57;;
40781;SDS011;26493;51.938;7.626;2022-07-04T11:25:29;15.70;;;11.30;;
40781;SDS011;26493;51.938;7.626;2022-07-04T11:27:55;18.80;;;12.10;;
40781;SDS011;26493;51.938;7.626;2022-07-04T11:30:21;22.10;;;11.50;;
40781;SDS011;26493;51.938;7.626;2022-07-04T11:32:47;16.73;;;11.10;;
40781;SDS011;26493;51.938;7.626;2022-07-04T11:35:13;18.20;;;11.13;;
40781;SDS011;26493;51.938;7.626;2022-07-04T11:37:42;15.27;;;10.65;;
40781;SDS011;26493;51.938;7.626;2022-07-04T11:40:08;16.58;;;11.27;;
40781;SDS011;26493;51.938;7.626;2022-07-04T11:43:02;15.70;;;10.60;;
40781;SDS011;26493;51.938;7.626;2022-07-04T11:45:47;18.77;;;10.93;;
40781;SDS011;26493;51.938;7.626;2022-07-04T11:50:48;19.02;;;11.73;;
40781;SDS011;26493;51.938;7.626;2022-07-04T11:53:16;16.98;;;11.60;;
40781;SDS011;26493;51.938;7.626;2022-07-04T11:55:54;17.20;;;10.90;;
40781;SDS011;26493;51.938;7.626;2022-07-04T11:58:21;16.30;;;10.98;;
40781;SDS011;26493;51.938;7.626;2022-07-04T12:00:47;14.85;;;10.55;;
40781;SDS011;26493;51.938;7.626;2022-07-04T12:03:13;17.67;;;11.07;;
40781;SDS011;26493;51.938;7.626;2022-07-04T12:05:39;17.42;;;10.90;;
40781;SDS011;26493;51.938;7.626;2022-07-04T12:08:07;15.90;;;10.90;;
40781;SDS011;26493;51.938;7.626;2022-07-04T12:10:33;16.23;;;11.32;;
40781;SDS011;26493;51.938;7.626;2022-07-04T12:18:03;15.82;;;11.00;;
40781;SDS011;26493;51.938;7.626;2022-07-04T12:20:31;16.65;;;11.30;;
40781;SDS011;26493;51.938;7.626;2022-07-04T12:22:59;15.32;;;11.25;;
40781;SDS011;26493;51.938;7.626;2022-07-04T12:27:59;17.17;;;11.10;;
40781;SDS011;26493;51.938;7.626;2022-07-04T12:30:26;16.33;;;11.00;;
40781;SDS011;26493;51.938;7.626;2022-07-04T12:32:53;16.33;;;10.93;;
40781;SDS011;26493;51.938;7.626;2022-07-04T12:35:52;15.43;;;10.73;;
40781;SDS011;26493;51.938;7.626;2022-07-04T12:38:15;15.10;;;10.70;;
40781;SDS011;26493;51.938;7.626;2022-07-04T12:40:49;16.50;;;10.95;;
40781;SDS011;26493;51.938;7.626;2022-07-04T12:43:16;17.10;;;11.50;;
40781;SDS011;26493;51.938;7.626;2022-07-04T12:45:46;16.95;;;11.10;;
40781;SDS011;26493;51.938;7.626;2022-07-04T12:48:20;16.05;;;11.50;;
40781;SDS011;26493;51.938;7.626;2022-07-04T12:50:47;16.63;;;10.90;;
40781;SDS011;26493;51.938;7.626;2022-07-04T12:53:13;15.75;;;11.02;;
40781;SDS011;26493;51.938;7.626;2022-07-04T12:55:42;15.40;;;10.30;;
40781;SDS011;26493;51.938;7.626;2022-07-04T12:58:09;15.43;;;10.60;;
40781;SDS011;26493;51.938;7.626;2022-07-04T13:00:35;18.83;;;11.57;;
40781;SDS011;26493;51.938;7.626;2022-07-04T13:03:02;18.45;;;11.30;;
40781;SDS011;26493;51.938;7.626;2022-07-04T13:05:28;14.87;;;10.50;;
40781;SDS011;26493;51.938;7.626;2022-07-04T13:07:54;15.85;;;11.13;;
40781;SDS011;26493;51.938;7.626;2022-07-04T13:10:20;15.32;;;10.80;;
40781;SDS011;26493;51.938;7.626;2022-07-04T13:12:46;16.52;;;11.10;;
40781;SDS011;26493;51.938;7.626;2022-07-04T13:15:12;17.80;;;10.77;;
40781;SDS011;26493;51.938;7.626;2022-07-04T13:17:38;16.20;;;10.88;;
40781;SDS011;26493;51.938;7.626;2022-07-04T13:20:04;14.90;;;10.98;;
40781;SDS011;26493;51.938;7.626;2022-07-04T13:22:30;15.75;;;10.88;;
40781;SDS011;26493;51.938;7.626;2022-07-04T13:24:56;16.13;;;10.85;;
40781;SDS011;26493;51.938;7.626;2022-07-04T13:27:23;16.80;;;10.80;;
40781;SDS011;26493;51.938;7.626;2022-07-04T13:29:50;16.00;;;10.90;;
40781;SDS011;26493;51.938;7.626;2022-07-04T13:32:16;15.80;;;10.88;;
40781;SDS011;26493;51.938;7.626;2022-07-04T13:34:42;16.77;;;11.23;;
40781;SDS011;26493;51.938;7.626;2022-07-04T13:37:08;17.02;;;10.80;;
40781;SDS011;26493;51.938;7.626;2022-07-04T13:39:34;15.27;;;10.90;;
40781;SDS011;26493;51.938;7.626;2022-07-04T13:42:00;17.33;;;10.93;;
40781;SDS011;26493;51.938;7.626;2022-07-04T13:44:27;18.30;;;11.20;;
40781;SDS011;26493;51.938;7.626;2022-07-04T13:46:53;16.90;;;11.43;;
40781;SDS011;26493;51.938;7.626;2022-07-04T13:49:21;16.67;;;10.90;;
40781;SDS011;26493;51.938;7.626;2022-07-04T13:51:47;16.25;;;11.32;;
40781;SDS011;26493;51.938;7.626;2022-07-04T13:54:13;16.95;;;11.48;;
40781;SDS011;26493;51.938;7.626;2022-07-04T13:56:39;16.83;;;11.73;;
40781;SDS011;26493;51.938;7.626;2022-07-04T13:59:07;17.48;;;11.00;;
40781;SDS011;26493;51.938;7.626;2022-07-04T14:01:33;16.80;;;11.00;;
40781;SDS011;26493;51.938;7.626;2022-07-04T14:03:59;15.85;;;10.80;;
40781;SDS011;26493;51.938;7.626;2022-07-04T14:06:25;15.98;;;11.35;;
40781;SDS011;26493;51.938;7.626;2022-07-04T14:08:51;17.60;;;11.68;;
40781;SDS011;26493;51.938;7.626;2022-07-04T14:11:17;15.82;;;11.27;;
40781;SDS011;26493;51.938;7.626;2022-07-04T14:13:43;16.33;;;11.43;;
40781;SDS011;26493;51.938;7.626;2022-07-04T14:16:09;17.50;;;11.18;;
40781;SDS011;26493;51.938;7.626;2022-07-04T14:18:35;15.02;;;10.38;;
40781;SDS011;26493;51.938;7.626;2022-07-04T14:21:01;17.40;;;10.68;;
40781;SDS011;26493;51.938;7.626;2022-07-04T14:23:27;16.75;;;11.07;;
40781;SDS011;26493;51.938;7.626;2022-07-04T14:26:07;16.13;;;11.10;;
40781;SDS011;26493;51.938;7.626;2022-07-04T14:28:33;16.90;;;11.23;;
40781;SDS011;26493;51.938;7.626;2022-07-04T14:31:00;17.75;;;10.95;;
40781;SDS011;26493;51.938;7.626;2022-07-04T14:33:26;15.13;;;11.30;;
40781;SDS011;26493;51.938;7.626;2022-07-04T14:35:52;16.77;;;11.30;;
40781;SDS011;26493;51.938;7.626;2022-07-04T14:38:18;15.73;;;11.43;;
40781;SDS011;26493;51.938;7.626;2022-07-04T14:40:45;17.55;;;11.55;;
40781;SDS011;26493;51.938;7.626;2022-07-04T14:43:13;19.50;;;11.23;;
40781;SDS011;26493;51.938;7.626;2022-07-04T14:45:39;16.58;;;11.52;;
40781;SDS011;26493;51.938;7.626;2022-07-04T14:48:05;16.88;;;11.07;;
40781;SDS011;26493;51.938;7.626;2022-07-04T14:50:33;16.27;;;11.20;;
40781;SDS011;26493;51.938;7.626;2022-07-04T14:52:59;19.71;;;11.09;;